createdAt,value
2019-03-13T00:00:26.505Z,72.96
2019-03-13T00:02:56.575Z,73.08
2019-03-13T00:05:26.934Z,73.15
2019-03-13T00:07:56.824Z,73.25
2019-03-13T00:10:26.728Z,73.31
2019-03-13T00:12:56.654Z,73.53
2019-03-13T00:15:26.418Z,73.63
2019-03-13T00:17:56.245Z,73.76
2019-03-13T00:20:26.412Z,73.90
2019-03-13T00:22:56.655Z,74.00
2019-03-13T00:25:26.684Z,74.03
2019-03-13T00:27:56.620Z,74.01
2019-03-13T00:30:26.633Z,74.16
2019-03-13T00:32:56.476Z,74.23
2019-03-13T00:35:26.686Z,74.29
2019-03-13T00:37:56.263Z,74.35
2019-03-13T00:40:26.453Z,74.44
2019-03-13T00:42:56.309Z,74.58
2019-03-13T00:48:05.488Z,74.95
2019-03-13T00:50:35.282Z,75.08
2019-03-13T00:53:05.079Z,75.26
2019-03-13T00:55:35.051Z,75.39
2019-03-13T00:58:05.175Z,75.66
2019-03-13T01:00:54.735Z,75.90
2019-03-13T01:03:42.688Z,75.98
2019-03-13T01:06:19.955Z,76.37
2019-03-13T01:08:50.349Z,76.47
2019-03-13T01:11:20.413Z,76.51
2019-03-13T01:13:52.798Z,76.52
2019-03-13T01:16:23.064Z,76.50
2019-03-13T01:18:53.223Z,76.51
2019-03-13T01:21:23.044Z,76.44
2019-03-13T01:23:53.477Z,76.51
2019-03-13T01:26:23.120Z,76.57
2019-03-13T01:28:53.192Z,76.59
2019-03-13T01:31:45.372Z,76.56
2019-03-13T01:34:46.552Z,76.45
2019-03-13T01:37:16.391Z,76.41
2019-03-13T01:39:46.529Z,76.37
2019-03-13T01:42:16.628Z,76.46
2019-03-13T01:44:46.413Z,76.53
2019-03-13T01:47:16.648Z,76.71
2019-03-13T01:49:46.998Z,76.81
2019-03-13T01:52:16.748Z,77.08
2019-03-13T01:54:46.581Z,77.15
2019-03-13T01:57:16.413Z,77.18
2019-03-13T01:59:46.304Z,77.19
2019-03-13T02:02:16.321Z,77.15
2019-03-13T02:04:46.212Z,77.24
2019-03-13T02:07:16.475Z,77.29
2019-03-13T02:09:46.451Z,77.34
2019-03-13T02:12:16.488Z,77.26
2019-03-13T02:14:46.451Z,77.20
2019-03-13T02:17:16.583Z,77.23
2019-03-13T02:19:49.510Z,77.11
2019-03-13T02:22:18.586Z,76.69
2019-03-13T02:24:48.562Z,76.76
2019-03-13T02:27:18.471Z,76.76
2019-03-13T02:29:48.387Z,76.47
2019-03-13T02:32:18.444Z,76.59
2019-03-13T02:34:48.418Z,76.56
2019-03-13T02:37:18.160Z,76.27
2019-03-13T02:39:48.185Z,76.10
2019-03-13T02:42:18.027Z,76.21
2019-03-13T02:44:48.089Z,76.26
2019-03-13T02:47:19.721Z,76.39
2019-03-13T02:49:49.903Z,76.33
2019-03-13T02:52:19.664Z,76.44
2019-03-13T02:54:49.685Z,76.50
2019-03-13T02:57:19.788Z,76.48
2019-03-13T02:59:52.387Z,76.56
2019-03-13T03:02:41.987Z,76.55
2019-03-13T03:05:12.099Z,76.71
2019-03-13T03:07:42.106Z,76.64
2019-03-13T03:10:12.398Z,76.60
2019-03-13T03:12:42.475Z,76.87
2019-03-13T03:15:14.724Z,76.72
2019-03-13T03:17:44.706Z,76.49
2019-03-13T03:20:16.794Z,76.46
2019-03-13T03:22:46.990Z,76.61
2019-03-13T03:25:17.241Z,76.31
2019-03-13T03:27:48.789Z,75.47
2019-03-13T03:30:20.643Z,75.79
2019-03-13T03:32:50.655Z,75.32
2019-03-13T03:35:20.695Z,75.21
2019-03-13T03:37:50.848Z,75.41
2019-03-13T03:40:23.112Z,75.55
2019-03-13T03:42:53.304Z,75.26
2019-03-13T03:45:23.324Z,74.68
2019-03-13T03:47:53.606Z,75.03
2019-03-13T03:50:23.320Z,75.19
2019-03-13T03:52:53.348Z,73.75
2019-03-13T03:55:23.374Z,74.38
2019-03-13T03:57:54.210Z,74.26
2019-03-13T04:00:24.277Z,74.05
2019-03-13T04:02:54.547Z,74.31
2019-03-13T04:05:24.846Z,73.97
2019-03-13T04:07:54.845Z,74.28
2019-03-13T04:10:24.857Z,74.41
2019-03-13T04:12:54.895Z,74.35
2019-03-13T04:15:25.222Z,74.39
2019-03-13T04:17:55.362Z,74.42
2019-03-13T04:20:25.657Z,74.40
2019-03-13T04:22:55.832Z,74.45
2019-03-13T04:25:33.857Z,74.44
2019-03-13T04:28:04.624Z,74.22
2019-03-13T04:30:35.545Z,74.18
2019-03-13T04:33:05.535Z,74.28
2019-03-13T04:35:35.509Z,74.26
2019-03-13T04:38:05.555Z,74.32
2019-03-13T04:40:35.517Z,74.28
2019-03-13T04:43:05.540Z,74.23
2019-03-13T04:45:36.632Z,74.19
2019-03-13T04:48:06.540Z,74.06
2019-03-13T04:50:36.780Z,73.97
2019-03-13T04:53:06.776Z,73.87
2019-03-13T04:55:37.262Z,73.80
2019-03-13T04:58:07.499Z,73.29
2019-03-13T05:00:37.519Z,73.58
2019-03-13T05:03:08.691Z,73.37
2019-03-13T05:05:42.927Z,72.80
2019-03-13T05:08:18.739Z,72.51
2019-03-13T05:10:48.645Z,74.35
2019-03-13T05:13:19.261Z,74.04
2019-03-13T05:15:49.425Z,74.89
2019-03-13T05:18:19.659Z,73.99
2019-03-13T05:20:50.498Z,74.31
2019-03-13T05:23:20.989Z,74.31
2019-03-13T05:25:51.240Z,74.05
2019-03-13T05:28:21.628Z,73.59
2019-03-13T05:30:53.066Z,73.04
2019-03-13T05:33:23.564Z,72.68
2019-03-13T05:35:54.257Z,72.52
2019-03-13T05:38:24.460Z,72.53
2019-03-13T05:40:54.682Z,72.03
2019-03-13T05:43:25.352Z,72.04
2019-03-13T05:45:56.733Z,71.18
2019-03-13T05:48:27.152Z,71.18
2019-03-13T05:50:57.273Z,70.97
2019-03-13T05:53:27.697Z,70.41
2019-03-13T05:55:58.330Z,70.06
2019-03-13T05:58:29.010Z,68.96
2019-03-13T06:01:00.681Z,69.58
2019-03-13T06:03:30.875Z,70.06
2019-03-13T06:06:01.292Z,69.95
2019-03-13T06:08:31.626Z,69.65
2019-03-13T06:11:02.044Z,69.45
2019-03-13T06:13:32.789Z,69.37
2019-03-13T06:16:03.009Z,68.51
2019-03-13T06:18:33.296Z,68.56
2019-03-13T06:21:03.494Z,68.68
2019-03-13T06:23:34.818Z,67.59
2019-03-13T06:26:06.185Z,66.97
2019-03-13T06:28:36.518Z,67.08
2019-03-13T06:31:07.996Z,66.74
2019-03-13T06:33:38.830Z,66.74
2019-03-13T06:36:08.897Z,66.46
2019-03-13T06:38:39.037Z,67.20
2019-03-13T06:41:08.964Z,67.75
2019-03-13T06:43:38.874Z,67.68
2019-03-13T06:46:09.304Z,66.64
2019-03-13T06:48:39.416Z,65.32
2019-03-13T06:51:09.991Z,66.48
2019-03-13T06:53:40.387Z,65.82
2019-03-13T06:56:10.881Z,66.53
2019-03-13T06:59:04.182Z,66.65
2019-03-13T07:01:52.723Z,65.01
2019-03-13T07:04:40.403Z,66.08
2019-03-13T07:07:20.917Z,66.06
2019-03-13T07:09:56.879Z,66.10
2019-03-13T07:12:38.296Z,65.68
2019-03-13T07:15:30.415Z,65.32
2019-03-13T07:18:26.586Z,65.18
2019-03-13T07:21:28.933Z,64.61
2019-03-13T07:24:14.744Z,64.98
2019-03-13T07:26:54.693Z,65.34
2019-03-13T07:29:49.065Z,65.19
2019-03-13T07:32:41.879Z,62.96
2019-03-13T07:35:46.498Z,63.43
2019-03-13T07:38:41.658Z,64.29
2019-03-13T07:41:30.368Z,62.19
2019-03-13T07:44:30.839Z,62.32
2019-03-13T07:47:19.174Z,63.14
2019-03-13T07:49:56.902Z,62.59
2019-03-13T07:52:46.660Z,62.90
2019-03-13T07:55:34.355Z,61.36
2019-03-13T07:58:20.953Z,62.49
2019-03-13T08:01:13.418Z,59.74
2019-03-13T08:04:04.955Z,61.19
2019-03-13T08:06:51.477Z,61.80
2019-03-13T08:09:49.539Z,61.76
2019-03-13T08:12:37.592Z,60.96
2019-03-13T08:15:28.640Z,61.61
2019-03-13T08:18:24.700Z,59.43
2019-03-13T08:21:22.331Z,59.98
2019-03-13T08:24:18.928Z,61.33
2019-03-13T08:27:08.964Z,59.98
2019-03-13T08:29:56.441Z,58.79
2019-03-13T08:32:46.685Z,59.68
2019-03-13T08:35:35.113Z,59.74
2019-03-13T08:38:25.434Z,58.81
2019-03-13T08:41:14.920Z,59.08
2019-03-13T08:44:04.795Z,57.94
2019-03-13T08:46:57.544Z,58.04
2019-03-13T08:49:38.818Z,58.23
2019-03-13T08:52:34.111Z,57.73
2019-03-13T08:55:22.594Z,57.11
2019-03-13T08:58:26.728Z,55.67
2019-03-13T09:01:16.020Z,55.42
2019-03-13T09:04:19.053Z,55.47
2019-03-13T09:07:11.044Z,53.26
2019-03-13T09:09:59.006Z,53.45
2019-03-13T09:12:40.854Z,54.07
2019-03-13T09:15:26.854Z,53.13
2019-03-13T09:18:19.361Z,53.06
2019-03-13T09:21:02.321Z,53.61
2019-03-13T09:23:55.490Z,53.25
2019-03-13T09:26:35.733Z,53.82
2019-03-13T09:29:31.685Z,53.28
2019-03-13T09:32:21.863Z,52.50
2019-03-13T09:35:17.475Z,52.01
2019-03-13T09:38:01.150Z,51.45
2019-03-13T09:40:53.989Z,52.16
2019-03-13T09:43:49.994Z,50.81
2019-03-13T09:46:51.737Z,50.75
2019-03-13T09:49:40.059Z,51.11
2019-03-13T09:52:19.326Z,51.12
2019-03-13T09:55:10.284Z,50.86
2019-03-13T09:58:00.032Z,49.40
2019-03-13T10:00:48.923Z,50.21
2019-03-13T10:03:25.727Z,49.63
2019-03-13T10:06:15.424Z,50.74
2019-03-13T10:09:03.359Z,50.28
2019-03-13T10:11:55.783Z,50.27
2019-03-13T10:14:49.183Z,52.00
2019-03-13T10:17:31.028Z,52.00
2019-03-13T10:20:20.828Z,51.23
2019-03-13T10:23:04.365Z,50.76
2019-03-13T10:25:52.778Z,49.40
2019-03-13T10:28:32.935Z,48.48
2019-03-13T10:31:31.784Z,48.04
2019-03-13T10:34:27.721Z,48.17
2019-03-13T10:37:18.480Z,48.29
2019-03-13T10:40:11.104Z,48.34
2019-03-13T10:43:01.369Z,47.97
2019-03-13T10:46:09.464Z,48.38
2019-03-13T10:49:00.822Z,47.92
2019-03-13T10:51:48.873Z,48.57
2019-03-13T10:54:50.621Z,48.22
2019-03-13T10:57:52.711Z,48.04
2019-03-13T11:00:31.075Z,48.66
2019-03-13T11:03:19.174Z,48.64
2019-03-13T11:06:07.821Z,48.88
2019-03-13T11:09:01.648Z,48.56
2019-03-13T11:11:46.726Z,48.34
2019-03-13T11:14:33.744Z,47.75
2019-03-13T11:17:26.489Z,48.30
2019-03-13T11:20:25.050Z,47.93
2019-03-13T11:23:23.448Z,46.53
2019-03-13T11:26:06.571Z,45.54
2019-03-13T11:28:46.737Z,45.01
2019-03-13T11:31:42.648Z,45.62
2019-03-13T11:34:21.627Z,45.18
2019-03-13T11:37:14.906Z,45.02
2019-03-13T11:40:17.535Z,44.83
2019-03-13T11:43:10.447Z,44.48
2019-03-13T11:45:54.336Z,43.91
2019-03-13T11:48:44.381Z,44.57
2019-03-13T11:51:51.005Z,44.51
2019-03-13T11:54:49.618Z,43.16
2019-03-13T11:57:38.814Z,43.61
2019-03-13T12:00:41.327Z,43.70
2019-03-13T12:03:31.529Z,43.21
2019-03-13T12:06:27.541Z,42.82
2019-03-13T12:09:15.416Z,43.66
2019-03-13T12:11:59.691Z,43.59
2019-03-13T12:14:52.735Z,43.61
2019-03-13T12:17:30.965Z,43.20
2019-03-13T12:20:26.184Z,43.88
2019-03-13T12:23:07.283Z,43.21
2019-03-13T12:25:57.935Z,42.40
2019-03-13T12:28:52.622Z,43.49
2019-03-13T12:31:39.318Z,42.94
2019-03-13T12:34:14.356Z,42.79
2019-03-13T12:37:03.887Z,42.43
2019-03-13T12:39:59.926Z,42.71
2019-03-13T12:42:42.557Z,43.12
2019-03-13T12:45:36.852Z,42.86
2019-03-13T12:48:17.695Z,42.42
2019-03-13T12:51:06.826Z,42.91
2019-03-13T12:53:56.513Z,43.09
2019-03-13T12:56:33.981Z,43.61
2019-03-13T12:59:13.975Z,43.75
2019-03-13T13:02:04.241Z,43.95
2019-03-13T13:04:52.985Z,43.52
2019-03-13T13:07:45.422Z,41.25
2019-03-13T13:10:28.408Z,38.70
2019-03-13T13:13:15.526Z,39.13
2019-03-13T13:15:58.580Z,39.00
2019-03-13T13:18:48.291Z,38.35
2019-03-13T13:21:19.173Z,38.03
2019-03-13T13:23:49.994Z,38.22
2019-03-13T13:26:20.279Z,37.40
2019-03-13T13:28:50.950Z,36.42
2019-03-13T13:31:21.204Z,34.93
2019-03-13T13:33:51.150Z,32.66
2019-03-13T13:36:21.906Z,32.32
2019-03-13T13:38:52.650Z,32.11
2019-03-13T13:41:23.196Z,31.00
2019-03-13T13:43:53.957Z,30.75
2019-03-13T13:46:29.279Z,28.75
2019-03-13T13:48:59.619Z,28.85
2019-03-13T13:51:32.583Z,29.09
2019-03-13T13:54:02.008Z,27.56
2019-03-13T13:56:32.263Z,26.56
2019-03-13T13:59:03.077Z,25.93
2019-03-13T14:01:33.290Z,25.67
2019-03-13T14:04:03.559Z,25.95
2019-03-13T14:06:34.272Z,26.08
2019-03-13T14:09:05.109Z,26.90
2019-03-13T14:11:35.881Z,28.50
2019-03-13T14:14:09.434Z,30.06
2019-03-13T14:16:39.538Z,32.02
2019-03-13T14:19:10.433Z,33.95
2019-03-13T14:21:41.367Z,35.30
2019-03-13T14:24:12.433Z,36.49
2019-03-13T14:26:43.406Z,37.48
2019-03-13T14:29:13.775Z,38.64
2019-03-13T14:31:45.696Z,39.55
2019-03-13T14:34:16.386Z,39.85
2019-03-13T14:36:47.050Z,40.26
2019-03-13T14:39:17.705Z,40.83
2019-03-13T14:41:47.993Z,41.62
2019-03-13T14:44:18.816Z,41.70
2019-03-13T14:46:49.816Z,41.83
2019-03-13T14:49:20.746Z,42.15
2019-03-13T14:51:52.140Z,42.61
2019-03-13T14:54:22.561Z,43.76
2019-03-13T14:56:52.990Z,44.16
2019-03-13T14:59:24.129Z,44.28
2019-03-13T15:01:54.781Z,44.86
2019-03-13T15:04:25.113Z,44.78
2019-03-13T15:06:55.888Z,44.58
2019-03-13T15:09:26.197Z,44.82
2019-03-13T15:11:56.698Z,45.18
2019-03-13T15:14:27.067Z,46.72
2019-03-13T15:16:57.638Z,46.23
2019-03-13T15:19:28.159Z,45.95
2019-03-13T15:21:58.802Z,46.22
2019-03-13T15:24:29.002Z,46.26
2019-03-13T15:26:59.193Z,46.38
2019-03-13T15:29:29.957Z,46.77
2019-03-13T15:32:00.351Z,47.04
2019-03-13T15:34:31.100Z,47.72
2019-03-13T15:37:01.798Z,47.95
2019-03-13T15:39:32.624Z,48.15
2019-03-13T15:42:03.281Z,48.08
2019-03-13T15:44:33.655Z,48.17
2019-03-13T15:47:03.790Z,48.59
2019-03-13T15:49:34.077Z,48.48
2019-03-13T15:52:04.378Z,49.17
2019-03-13T15:54:34.710Z,49.28
2019-03-13T15:57:05.023Z,49.63
2019-03-13T15:59:35.162Z,49.50
2019-03-13T16:02:05.266Z,49.45
2019-03-13T16:04:35.302Z,49.98
2019-03-13T16:07:05.273Z,49.51
2019-03-13T16:09:35.439Z,49.99
2019-03-13T16:12:05.821Z,50.68
2019-03-13T16:14:35.984Z,50.63
2019-03-13T16:17:05.960Z,50.75
2019-03-13T16:19:36.391Z,51.16
2019-03-13T16:22:07.768Z,51.28
2019-03-13T16:24:37.938Z,51.37
2019-03-13T16:27:08.969Z,51.66
2019-03-13T16:29:38.694Z,51.69
2019-03-13T16:32:13.390Z,52.00
2019-03-13T16:34:44.663Z,52.33
2019-03-13T16:37:15.144Z,52.19
2019-03-13T16:39:46.169Z,52.53
2019-03-13T16:42:19.556Z,52.61
2019-03-13T16:44:50.458Z,52.33
2019-03-13T16:47:21.332Z,52.37
2019-03-13T16:49:53.639Z,52.27
2019-03-13T16:52:25.044Z,52.72
2019-03-13T16:54:58.217Z,52.91
2019-03-13T16:57:28.875Z,53.14
2019-03-13T17:00:00.783Z,53.18
2019-03-13T17:02:31.518Z,53.36
2019-03-13T17:05:02.512Z,53.21
2019-03-13T17:07:34.905Z,53.64
2019-03-13T17:10:06.938Z,53.31
2019-03-13T17:12:40.548Z,53.66
2019-03-13T17:15:13.686Z,53.38
2019-03-13T17:17:44.398Z,53.70
2019-03-13T17:20:17.505Z,53.83
2019-03-13T17:22:48.322Z,53.83
2019-03-13T17:25:19.239Z,54.04
2019-03-13T17:27:50.938Z,54.38
2019-03-13T17:30:23.622Z,54.74
2019-03-13T17:32:54.955Z,54.41
2019-03-13T17:35:25.168Z,54.37
2019-03-13T17:37:55.571Z,54.34
2019-03-13T17:40:26.961Z,55.11
2019-03-13T17:42:57.814Z,54.87
2019-03-13T17:45:30.614Z,54.90
2019-03-13T17:48:00.942Z,55.13
2019-03-13T17:50:31.394Z,54.97
2019-03-13T17:53:02.313Z,54.79
2019-03-13T17:55:32.601Z,54.93
2019-03-13T17:58:03.155Z,55.22
2019-03-13T18:00:51.900Z,55.63
2019-03-13T18:03:25.366Z,55.50
2019-03-13T18:05:58.226Z,55.30
2019-03-13T18:08:28.489Z,55.79
2019-03-13T18:10:59.899Z,55.78
2019-03-13T18:13:30.940Z,55.71
2019-03-13T18:16:04.446Z,55.78
2019-03-13T18:20:44.482Z,55.88
2019-03-13T18:23:15.390Z,55.69
2019-03-13T18:25:49.024Z,55.71
2019-03-13T18:28:22.408Z,55.54
2019-03-13T18:30:53.365Z,55.99
2019-03-13T18:33:26.581Z,56.00
2019-03-13T18:35:58.790Z,56.17
2019-03-13T18:38:30.842Z,56.42
2019-03-13T18:41:02.875Z,56.03
2019-03-13T18:43:33.868Z,56.22
2019-03-13T18:46:04.577Z,56.28
2019-03-13T18:48:35.565Z,56.12
2019-03-13T18:51:07.076Z,56.50
2019-03-13T18:53:38.036Z,56.39
2019-03-13T18:56:08.482Z,56.14
2019-03-13T18:58:39.172Z,56.43
2019-03-13T19:01:10.942Z,56.83
2019-03-13T19:03:41.800Z,56.58
2019-03-13T19:06:14.015Z,56.34
2019-03-13T19:08:44.094Z,56.32
2019-03-13T19:11:14.367Z,56.26
2019-03-13T19:13:45.831Z,56.64
2019-03-13T19:16:16.113Z,56.60
2019-03-13T19:18:46.265Z,56.57
2019-03-13T19:21:19.660Z,56.76
2019-03-13T19:23:53.865Z,56.76
2019-03-13T19:26:25.768Z,56.77
2019-03-13T19:29:01.389Z,56.76
2019-03-13T19:31:40.160Z,56.94
2019-03-13T19:34:11.529Z,57.07
2019-03-13T19:36:43.353Z,56.97
2019-03-13T19:39:18.898Z,56.94
2019-03-13T19:41:50.241Z,56.79
2019-03-13T19:44:21.790Z,57.02
2019-03-13T19:46:52.629Z,56.96
2019-03-13T19:49:25.595Z,57.37
2019-03-13T19:51:56.988Z,57.12
2019-03-13T19:54:29.503Z,56.89
2019-03-13T19:57:00.323Z,57.13
2019-03-13T19:59:31.133Z,57.34
2019-03-13T20:02:01.924Z,57.53
2019-03-13T20:04:46.679Z,57.44
2019-03-13T20:07:07.369Z,57.60
2019-03-13T20:09:37.622Z,57.70
2019-03-13T20:12:07.961Z,57.89
2019-03-13T20:14:39.302Z,57.86
2019-03-13T20:17:09.809Z,57.98
2019-03-13T20:19:40.449Z,58.17
2019-03-13T20:22:11.325Z,58.16
2019-03-13T20:24:41.515Z,58.37
2019-03-13T20:27:12.076Z,58.37
2019-03-13T20:29:44.478Z,58.40
2019-03-13T20:32:15.353Z,58.55
2019-03-13T20:34:46.474Z,58.47
2019-03-13T20:37:16.902Z,58.58
2019-03-13T20:39:46.969Z,58.72
2019-03-13T20:42:17.295Z,58.87
2019-03-13T20:44:47.582Z,58.88
2019-03-13T20:47:18.668Z,58.91
2019-03-13T20:49:49.032Z,58.97
2019-03-13T20:52:18.780Z,58.96
2019-03-13T20:54:48.714Z,59.03
2019-03-13T20:57:19.009Z,58.82
2019-03-13T20:59:48.943Z,59.13
2019-03-13T21:02:19.406Z,58.74
2019-03-13T21:04:50.709Z,58.92
2019-03-13T21:07:21.168Z,59.09
2019-03-13T21:09:51.233Z,59.22
2019-03-13T21:12:23.045Z,59.36
2019-03-13T21:14:53.091Z,59.38
2019-03-13T21:17:22.996Z,59.58
2019-03-13T21:19:53.080Z,59.78
2019-03-13T21:22:22.995Z,59.97
2019-03-13T21:24:53.339Z,59.98
2019-03-13T21:27:23.511Z,60.08
2019-03-13T21:29:53.621Z,60.22
2019-03-13T21:32:23.799Z,60.35
2019-03-13T21:34:54.591Z,60.38
2019-03-13T21:37:24.686Z,60.47
2019-03-13T21:39:54.784Z,60.38
2019-03-13T21:42:24.721Z,60.54
2019-03-13T21:44:54.838Z,60.55
2019-03-13T21:47:25.128Z,60.46
2019-03-13T21:49:55.035Z,60.45
2019-03-13T21:52:25.231Z,60.43
2019-03-13T21:54:55.215Z,60.51
2019-03-13T21:57:24.964Z,60.54
2019-03-13T21:59:55.692Z,60.62
2019-03-13T22:02:32.562Z,60.71
2019-03-13T22:04:57.590Z,60.80
2019-03-13T22:07:27.498Z,60.72
2019-03-13T22:09:58.661Z,60.98
2019-03-13T22:12:28.601Z,60.94
2019-03-13T22:14:58.526Z,61.08
2019-03-13T22:17:28.699Z,61.07
2019-03-13T22:20:01.238Z,61.27
2019-03-13T22:22:31.210Z,61.22
2019-03-13T22:25:01.179Z,61.42
2019-03-13T22:30:28.791Z,61.54
2019-03-13T22:32:58.365Z,61.59
2019-03-13T22:35:28.424Z,61.64
2019-03-13T22:37:58.473Z,61.67
2019-03-13T22:40:28.437Z,61.89
2019-03-13T22:42:58.375Z,61.85
2019-03-13T22:45:28.711Z,61.96
2019-03-13T22:47:58.725Z,61.99
2019-03-13T22:50:28.914Z,62.13
2019-03-13T22:52:59.059Z,62.03
2019-03-13T22:55:29.141Z,62.12
2019-03-13T22:58:01.524Z,62.07
2019-03-13T23:00:55.888Z,62.30
2019-03-13T23:03:27.695Z,62.50
2019-03-13T23:05:58.260Z,62.60
2019-03-13T23:08:30.918Z,62.62
2019-03-13T23:11:00.512Z,62.82
2019-03-13T23:13:30.539Z,62.92
2019-03-13T23:16:01.483Z,63.10
2019-03-13T23:18:31.612Z,63.18
2019-03-13T23:21:15.452Z,63.36
2019-03-13T23:23:45.634Z,63.48
2019-03-13T23:26:15.551Z,63.73
2019-03-13T23:28:45.705Z,64.09
2019-03-13T23:31:15.966Z,64.06
2019-03-13T23:33:46.078Z,63.95
2019-03-13T23:36:16.080Z,63.96
2019-03-13T23:38:45.728Z,64.05
2019-03-13T23:41:16.003Z,64.08
2019-03-13T23:43:46.219Z,64.14
2019-03-13T23:46:16.931Z,64.31
2019-03-13T23:48:48.657Z,64.47
2019-03-13T23:51:26.371Z,64.73
2019-03-13T23:53:57.733Z,64.83
2019-03-13T23:56:28.911Z,65.05
2019-03-13T23:59:01.493Z,65.02
